Ceiba, PR

1:50 PM AST on October 25, 2014 (GMT -0400)
Roosevelt Roads Ns | Change Station
CLOSE
Current Station
Airport
Location: Roosevelt Roads,
Elevation: 39 ft
Nearby Weather Stations

Elev 39 ft 18.26 °N, 65.64 °W | Updated 57 minutes ago

Scattered Clouds
Scattered Clouds
91 °F
Feels Like 100 °F
N
12
Wind Variable Wind from South

Today
High -- | Low -- °F
--% Chance of Precip.
Yesterday
High -- | Low -- °F
Precip. -- in
6:19 AM 5:53 PM
Waxing Crescent, 4% visible
Pressure 29.92 in
Visibility 10.0 miles
Clouds Scattered Clouds 3400 ft
Heat Index 100 °F
Dew Point 74 °F
Humidity 57%
Rainfall 0.00 in
Snow Depth Not available.
UV 7 out of 12
Pollen Not available.
Air Quality Not available.
Flu Activity Local Activity
METAR TJNR 251653Z AUTO 18010KT 10SM SCT034 33/23 A2992 RMK AO2 SLP132 T03280233 $

More Conditions Fewer Conditions

Pressure 29.92 in
Visibility 10.0 miles
Clouds Scattered Clouds 3400 ft
Heat Index 100 °F
Dew Point 74 °F
Humidity 57%
Rainfall 0.00 in
Snow Depth Not available.
UV 7 out of 12
Pollen Not available.
Air Quality Not available.
Flu Activity Local Activity
METAR TJNR 251653Z AUTO 18010KT 10SM SCT034 33/23 A2992 RMK AO2 SLP132 T03280233 $

More Conditions Fewer Conditions

10-Day Weather Forecast

Almanac

Astronomy

Oct. 25, 2014 Rise Set
Actual Time 6:19 AM AST 5:53 PM AST
Civil Twilight 5:57 AM AST 6:15 PM AST
Nautical Twilight 5:31 AM AST 6:41 PM AST
Astronomical Twilight 5:05 AM AST 7:07 PM AST
Moon 7:44 AM AST 7:24 PM AST
Length of Visible Light 12h 18m
Length of Day
11h 34m
Tomorrow will be 0m 56s shorter.
Waxing Crescent, 4% of the Moon is Illuminated
Today
Waxing Crescent
Oct 30
First Quarter
Nov 6
Full
Nov 14
Last Quarter
Nov 22
New

Community

WunderPhotos

Upload Photos

1,764,919 photos uploaded!

Nearby

Snow Depth

Station Depth Elevation
No new snow has been reported.

Earthquake Activity

City Distance Mag. Time & Date
No recent earthquake activity has been reported nearby.
Minimum magnitude displayed is 2.5.

Coastal Water Temperatures

Place Temperature
Yabucoa Harbor, PR 87.1 °F
Esperanza, PR 86.0 °F
Charlotte Amalie, VI 86.0 °F

Nearby Weather Stations